createdAt,value
2022-10-17T00:00:32.366Z,92.03
2022-10-17T00:02:58.800Z,92.82
2022-10-17T00:05:25.318Z,92.86
2022-10-17T00:07:52.645Z,93.05
2022-10-17T00:10:19.968Z,92.93
2022-10-17T00:12:46.517Z,92.72
2022-10-17T00:15:16.408Z,92.41
2022-10-17T00:17:42.949Z,92.37
2022-10-17T00:20:09.763Z,92.11
2022-10-17T00:25:07.878Z,91.95
2022-10-17T00:27:38.666Z,92.23
2022-10-17T00:30:07.178Z,92.07
2022-10-17T00:32:33.650Z,92.00
2022-10-17T00:35:00.137Z,91.75
2022-10-17T00:37:26.971Z,91.09
2022-10-17T00:39:54.210Z,91.28
2022-10-17T00:42:21.053Z,91.21
2022-10-17T00:44:47.672Z,91.04
2022-10-17T00:47:19.243Z,91.14
2022-10-17T00:49:47.333Z,91.30
2022-10-17T00:52:21.429Z,91.22
2022-10-17T00:55:00.622Z,90.96
2022-10-17T00:57:29.716Z,90.54
2022-10-17T00:59:57.889Z,90.39
2022-10-17T01:02:24.374Z,90.29
2022-10-17T01:04:53.188Z,89.94
2022-10-17T01:07:19.545Z,90.18
2022-10-17T01:09:47.472Z,90.21
2022-10-17T01:12:22.671Z,89.73
2022-10-17T01:15:17.209Z,89.92
2022-10-17T01:17:52.624Z,89.78
2022-10-17T01:20:37.870Z,89.67
2022-10-17T01:23:23.240Z,89.12
2022-10-17T01:26:01.547Z,89.28
2022-10-17T01:28:52.823Z,89.02
2022-10-17T01:31:23.470Z,88.37
2022-10-17T01:33:56.085Z,88.52
2022-10-17T01:36:47.697Z,88.61
2022-10-17T01:39:37.003Z,88.48
2022-10-17T01:42:33.972Z,88.52
2022-10-17T01:45:16.702Z,87.85
2022-10-17T01:47:43.257Z,87.84
2022-10-17T01:50:16.980Z,88.07
2022-10-17T01:52:50.249Z,88.01
2022-10-17T01:55:28.675Z,88.09
2022-10-17T01:58:04.063Z,88.14
2022-10-17T02:00:32.352Z,88.03
2022-10-17T02:03:01.915Z,87.86
2022-10-17T02:05:33.899Z,87.72
2022-10-17T02:08:00.260Z,88.50
2022-10-17T02:10:44.857Z,87.46
2022-10-17T02:13:24.288Z,87.82
2022-10-17T02:16:14.304Z,87.58
2022-10-17T02:18:46.901Z,87.60
2022-10-17T02:21:35.359Z,87.73
2022-10-17T02:24:19.011Z,86.93
2022-10-17T02:26:49.889Z,87.17
2022-10-17T02:30:18.104Z,87.39
2022-10-17T02:32:53.086Z,87.30
2022-10-17T02:35:20.927Z,87.41
2022-10-17T02:37:48.158Z,87.46
2022-10-17T02:40:17.513Z,87.14
2022-10-17T02:42:45.417Z,86.34
2022-10-17T02:45:13.314Z,86.74
2022-10-17T02:48:02.431Z,87.02
2022-10-17T02:50:39.865Z,87.19
2022-10-17T02:53:10.456Z,86.63
2022-10-17T02:55:43.821Z,86.57
2022-10-17T02:58:29.000Z,86.31
2022-10-17T03:00:55.415Z,86.58
2022-10-17T03:03:25.386Z,86.78
2022-10-17T03:05:52.815Z,86.14
2022-10-17T03:08:19.982Z,86.22
2022-10-17T03:10:46.484Z,86.15
2022-10-17T03:13:13.820Z,86.46
2022-10-17T03:15:40.696Z,86.06
2022-10-17T03:18:07.125Z,86.25
2022-10-17T03:20:33.554Z,86.27
2022-10-17T03:23:00.437Z,86.67
2022-10-17T03:25:26.982Z,86.05
2022-10-17T03:27:53.498Z,86.06
2022-10-17T03:30:20.226Z,86.12
2022-10-17T03:32:46.643Z,86.00
2022-10-17T03:35:15.058Z,85.85
2022-10-17T03:37:41.629Z,85.50
2022-10-17T03:40:08.481Z,85.93
2022-10-17T03:42:34.890Z,85.95
2022-10-17T03:45:01.312Z,85.68
2022-10-17T03:47:28.985Z,85.27
2022-10-17T03:49:55.612Z,85.34
2022-10-17T03:52:22.012Z,85.27
2022-10-17T03:54:50.582Z,84.80
2022-10-17T03:57:18.249Z,85.38
2022-10-17T03:59:47.637Z,84.96
2022-10-17T04:02:14.074Z,85.12
2022-10-17T04:04:40.482Z,85.17
2022-10-17T04:07:07.037Z,84.50
2022-10-17T04:09:33.435Z,84.19
2022-10-17T04:11:59.918Z,84.08
2022-10-17T04:14:26.515Z,84.68
2022-10-17T04:16:53.576Z,84.13
2022-10-17T04:19:20.112Z,84.58
2022-10-17T04:21:46.558Z,84.73
2022-10-17T04:24:13.521Z,84.40
2022-10-17T04:26:39.940Z,84.62
2022-10-17T04:29:06.379Z,85.34
2022-10-17T04:31:32.749Z,84.65
2022-10-17T04:33:59.153Z,84.19
2022-10-17T04:36:25.616Z,84.25
2022-10-17T04:38:51.993Z,83.99
2022-10-17T04:41:19.429Z,83.79
2022-10-17T04:43:48.662Z,83.71
2022-10-17T04:46:17.696Z,83.86
2022-10-17T04:48:44.167Z,83.19
2022-10-17T04:51:16.071Z,83.74
2022-10-17T04:53:43.389Z,83.27
2022-10-17T04:56:12.768Z,83.55
2022-10-17T04:58:39.690Z,83.48
2022-10-17T05:01:11.127Z,83.67
2022-10-17T05:03:37.704Z,83.29
2022-10-17T05:06:12.493Z,83.40
2022-10-17T05:08:39.021Z,83.57
2022-10-17T05:11:06.550Z,83.98
2022-10-17T05:13:33.170Z,83.52
2022-10-17T05:16:00.923Z,83.08
2022-10-17T05:18:28.908Z,83.47
2022-10-17T05:20:55.711Z,83.56
2022-10-17T05:23:22.121Z,83.53
2022-10-17T05:25:48.469Z,83.65
2022-10-17T05:28:14.903Z,83.73
2022-10-17T05:30:41.337Z,83.11
2022-10-17T05:33:07.782Z,82.96
2022-10-17T05:35:34.221Z,83.10
2022-10-17T05:38:00.670Z,83.11
2022-10-17T05:40:27.328Z,83.19
2022-10-17T05:42:53.756Z,82.67
2022-10-17T05:45:20.150Z,82.49
2022-10-17T05:47:46.560Z,82.10
2022-10-17T05:50:13.348Z,82.55
2022-10-17T05:52:40.562Z,82.57
2022-10-17T05:55:09.159Z,82.21
2022-10-17T05:57:35.608Z,81.85
2022-10-17T06:00:02.329Z,82.26
2022-10-17T06:02:29.198Z,81.64
2022-10-17T06:04:55.850Z,81.59
2022-10-17T06:07:22.290Z,81.57
2022-10-17T06:09:48.687Z,81.49
2022-10-17T06:12:15.154Z,81.91
2022-10-17T06:14:41.582Z,81.42
2022-10-17T06:17:12.137Z,81.81
2022-10-17T06:19:41.516Z,81.85
2022-10-17T06:22:07.955Z,82.19
2022-10-17T06:24:34.360Z,82.11
2022-10-17T06:27:00.713Z,82.09
2022-10-17T06:29:27.156Z,82.33
2022-10-17T06:31:53.998Z,82.33
2022-10-17T06:34:20.978Z,81.88
2022-10-17T06:36:47.489Z,81.95
2022-10-17T06:39:14.033Z,81.81
2022-10-17T06:41:41.422Z,81.48
2022-10-17T06:44:13.606Z,81.16
2022-10-17T06:46:40.583Z,81.85
2022-10-17T06:49:07.626Z,81.52
2022-10-17T06:51:37.790Z,81.28
2022-10-17T06:54:04.694Z,81.05
2022-10-17T06:56:31.229Z,80.81
2022-10-17T06:58:57.609Z,81.21
2022-10-17T07:01:24.147Z,80.76
2022-10-17T07:03:50.621Z,80.74
2022-10-17T07:06:17.995Z,81.06
2022-10-17T07:08:45.499Z,81.04
2022-10-17T07:11:15.051Z,80.36
2022-10-17T07:13:42.017Z,80.47
2022-10-17T07:16:09.450Z,80.21
2022-10-17T07:18:36.149Z,79.95
2022-10-17T07:21:03.762Z,79.93
2022-10-17T07:23:30.865Z,79.81
2022-10-17T07:26:02.358Z,79.30
2022-10-17T07:28:29.082Z,79.87
2022-10-17T07:30:55.520Z,79.73
2022-10-17T07:33:22.084Z,79.46
2022-10-17T07:35:48.514Z,79.54
2022-10-17T07:38:14.921Z,79.05
2022-10-17T07:40:41.368Z,79.67
2022-10-17T07:43:07.751Z,79.04
2022-10-17T07:45:34.131Z,78.39
2022-10-17T07:48:00.913Z,78.27
2022-10-17T07:50:27.439Z,77.75
2022-10-17T07:52:53.797Z,77.17
2022-10-17T07:55:20.209Z,76.53
2022-10-17T07:57:46.644Z,75.79
2022-10-17T08:00:13.273Z,75.46
2022-10-17T08:02:39.630Z,74.28
2022-10-17T08:05:06.347Z,74.06
2022-10-17T08:07:32.779Z,73.36
2022-10-17T08:09:59.336Z,71.83
2022-10-17T08:12:26.269Z,71.82
2022-10-17T08:14:52.715Z,71.59
2022-10-17T08:17:19.136Z,70.59
2022-10-17T08:19:45.607Z,69.19
2022-10-17T08:22:12.075Z,70.00
2022-10-17T08:24:38.529Z,69.34
2022-10-17T08:27:11.189Z,69.31
2022-10-17T08:29:38.621Z,69.80
2022-10-17T08:32:08.998Z,70.64
2022-10-17T08:34:36.240Z,71.12
2022-10-17T08:37:02.678Z,71.67
2022-10-17T08:39:29.150Z,71.63
2022-10-17T08:42:14.362Z,70.39
2022-10-17T08:44:57.156Z,69.72
2022-10-17T08:47:48.942Z,69.30
2022-10-17T08:50:30.265Z,69.81
2022-10-17T08:53:24.524Z,70.60
2022-10-17T08:55:52.994Z,70.52
2022-10-17T08:58:23.700Z,70.04
2022-10-17T09:01:13.244Z,70.38
2022-10-17T09:03:54.842Z,69.18
2022-10-17T09:06:31.706Z,67.26
2022-10-17T09:09:16.322Z,67.04
2022-10-17T09:11:56.685Z,66.90
2022-10-17T09:14:32.118Z,68.08
2022-10-17T09:17:08.155Z,68.33
2022-10-17T09:20:05.903Z,67.72
2022-10-17T09:22:47.709Z,65.23
2022-10-17T09:25:19.042Z,66.09
2022-10-17T09:27:53.799Z,66.40
2022-10-17T09:30:45.248Z,67.64
2022-10-17T09:33:35.576Z,67.86
2022-10-17T09:36:16.919Z,68.52
2022-10-17T09:38:49.141Z,68.30
2022-10-17T09:44:32.325Z,69.88
2022-10-17T09:47:18.940Z,70.34
2022-10-17T09:49:47.853Z,71.01
2022-10-17T09:52:19.935Z,70.99
2022-10-17T09:54:53.534Z,70.75
2022-10-17T09:57:21.526Z,72.00
2022-10-17T09:59:57.020Z,71.37
2022-10-17T10:02:25.661Z,72.02
2022-10-17T10:05:05.564Z,72.00
2022-10-17T10:07:38.154Z,73.31
2022-10-17T10:10:07.712Z,72.11
2022-10-17T10:12:39.414Z,72.92
2022-10-17T10:15:38.123Z,73.06
2022-10-17T10:18:24.434Z,73.32
2022-10-17T10:21:12.565Z,73.38
2022-10-17T10:23:41.844Z,73.68
2022-10-17T10:26:26.282Z,73.35
2022-10-17T10:29:02.171Z,73.33
2022-10-17T10:31:32.663Z,73.82
2022-10-17T10:34:02.261Z,73.35
2022-10-17T10:36:48.346Z,72.92
2022-10-17T10:39:37.700Z,72.60
2022-10-17T10:42:08.033Z,72.75
2022-10-17T10:44:38.125Z,72.56
2022-10-17T10:47:15.645Z,73.56
2022-10-17T10:49:43.171Z,72.76
2022-10-17T10:52:15.833Z,73.10
2022-10-17T10:54:51.486Z,72.96
2022-10-17T10:57:21.375Z,73.22
2022-10-17T10:59:55.920Z,73.47
2022-10-17T11:02:37.660Z,73.48
2022-10-17T11:05:13.220Z,73.97
2022-10-17T11:07:47.606Z,73.10
2022-10-17T11:10:21.636Z,74.31
2022-10-17T11:13:09.567Z,74.71
2022-10-17T11:15:45.654Z,74.76
2022-10-17T11:18:22.688Z,75.22
2022-10-17T11:21:00.465Z,74.65
2022-10-17T11:23:47.625Z,74.91
2022-10-17T11:26:37.843Z,74.74
2022-10-17T11:29:09.085Z,74.95
2022-10-17T11:31:41.605Z,74.43
2022-10-17T11:34:20.190Z,75.68
2022-10-17T11:36:50.808Z,75.78
2022-10-17T11:39:22.685Z,74.85
2022-10-17T11:42:06.713Z,75.38
2022-10-17T11:44:38.866Z,75.98
2022-10-17T11:47:29.774Z,75.28
2022-10-17T11:53:00.522Z,76.06
2022-10-17T11:55:29.878Z,74.78
2022-10-17T11:58:17.841Z,75.54
2022-10-17T12:00:51.592Z,75.35
2022-10-17T12:03:29.894Z,75.97
2022-10-17T12:06:03.972Z,74.67
2022-10-17T12:08:53.416Z,74.38
2022-10-17T12:11:50.612Z,74.59
2022-10-17T12:14:37.356Z,75.15
2022-10-17T12:17:25.040Z,75.01
2022-10-17T12:19:51.454Z,74.86
2022-10-17T12:22:28.876Z,76.68
2022-10-17T12:25:00.912Z,76.12
2022-10-17T12:27:39.422Z,76.46
2022-10-17T12:30:12.448Z,76.72
2022-10-17T12:33:05.566Z,77.07
2022-10-17T12:35:35.911Z,76.63
2022-10-17T12:38:17.449Z,76.85
2022-10-17T12:40:48.478Z,77.65
2022-10-17T12:43:18.163Z,80.09
2022-10-17T12:45:53.660Z,80.62
2022-10-17T12:48:38.396Z,80.93
2022-10-17T12:54:08.685Z,79.69
2022-10-17T12:56:45.578Z,82.09
2022-10-17T12:59:28.183Z,83.39
2022-10-17T13:01:58.839Z,85.48
2022-10-17T13:04:26.805Z,86.06
2022-10-17T13:06:57.308Z,86.75
2022-10-17T13:09:38.334Z,84.85
2022-10-17T13:12:11.128Z,82.04
2022-10-17T13:14:40.959Z,81.98
2022-10-17T13:17:20.419Z,85.00
2022-10-17T13:19:47.045Z,86.38
2022-10-17T13:22:21.986Z,83.82
2022-10-17T13:24:50.084Z,83.23
2022-10-17T13:27:31.070Z,81.59
2022-10-17T13:29:59.569Z,81.81
2022-10-17T13:32:34.934Z,81.11
2022-10-17T13:35:22.028Z,81.11
2022-10-17T13:37:54.059Z,80.68
2022-10-17T13:40:44.368Z,78.98
2022-10-17T13:43:18.635Z,78.30
2022-10-17T13:45:49.428Z,77.73
2022-10-17T13:48:21.964Z,78.43
2022-10-17T13:50:51.743Z,77.70
2022-10-17T13:53:25.222Z,78.14
2022-10-17T13:56:32.943Z,77.50
2022-10-17T13:59:05.057Z,77.05
2022-10-17T14:01:32.028Z,76.16
2022-10-17T14:04:08.758Z,75.61
2022-10-17T14:06:44.974Z,75.97
2022-10-17T14:09:26.861Z,75.65
2022-10-17T14:12:11.032Z,75.48
2022-10-17T14:15:05.037Z,75.66
2022-10-17T14:17:28.379Z,76.10
2022-10-17T14:20:30.859Z,75.52
2022-10-17T14:23:17.610Z,75.91
2022-10-17T14:25:40.760Z,75.96
2022-10-17T14:28:09.236Z,75.46
2022-10-17T14:30:55.707Z,75.23
2022-10-17T14:33:27.703Z,75.24
2022-10-17T14:35:56.788Z,75.58
2022-10-17T14:38:24.466Z,75.95
2022-10-17T14:44:00.741Z,75.05
2022-10-17T14:46:27.875Z,75.70
2022-10-17T14:49:04.806Z,74.71
2022-10-17T14:51:40.234Z,74.03
2022-10-17T14:54:25.865Z,74.66
2022-10-17T14:56:54.306Z,74.73
2022-10-17T14:59:51.436Z,75.32
2022-10-17T15:02:14.582Z,74.91
2022-10-17T15:04:41.518Z,74.61
2022-10-17T15:07:17.256Z,75.65
2022-10-17T15:09:45.122Z,74.92
2022-10-17T15:12:20.327Z,75.60
2022-10-17T15:14:48.382Z,76.88
2022-10-17T15:17:24.468Z,76.69
2022-10-17T15:19:50.987Z,77.30
2022-10-17T15:22:18.247Z,77.90
2022-10-17T15:24:48.153Z,79.83
2022-10-17T15:27:23.228Z,79.51
2022-10-17T15:29:51.603Z,79.22
2022-10-17T15:32:18.235Z,80.57
2022-10-17T15:34:45.106Z,80.78
2022-10-17T15:37:22.291Z,80.32
2022-10-17T15:39:54.388Z,81.15
2022-10-17T15:42:31.215Z,81.90
2022-10-17T15:44:58.448Z,82.36
2022-10-17T15:47:27.337Z,82.56
2022-10-17T15:49:55.114Z,82.22
2022-10-17T15:52:22.446Z,81.54
2022-10-17T15:54:49.295Z,81.98
2022-10-17T15:57:21.452Z,81.29
2022-10-17T15:59:49.066Z,82.62
2022-10-17T16:02:17.434Z,83.25
2022-10-17T16:04:44.602Z,84.31
2022-10-17T16:07:11.273Z,84.76
2022-10-17T16:09:37.759Z,84.80
2022-10-17T16:12:06.457Z,85.32
2022-10-17T16:14:33.318Z,86.89
2022-10-17T16:17:00.134Z,87.70
2022-10-17T16:19:29.951Z,88.15
2022-10-17T16:21:59.628Z,89.37
2022-10-17T16:24:28.601Z,90.00
2022-10-17T16:26:54.998Z,90.30
2022-10-17T16:29:21.802Z,90.82
2022-10-17T16:31:48.243Z,92.31
2022-10-17T16:34:17.078Z,91.07
2022-10-17T16:36:43.574Z,90.75
2022-10-17T16:39:10.260Z,90.76
2022-10-17T16:41:38.851Z,91.06
2022-10-17T16:44:08.490Z,90.55
2022-10-17T16:46:37.192Z,90.10
2022-10-17T16:49:07.548Z,90.66
2022-10-17T16:51:35.750Z,91.96
2022-10-17T16:54:02.628Z,91.45
2022-10-17T16:56:32.829Z,91.76
2022-10-17T16:59:00.661Z,91.69
2022-10-17T17:01:29.407Z,91.30
2022-10-17T17:03:56.560Z,91.19
2022-10-17T17:06:28.509Z,91.88
2022-10-17T17:08:55.731Z,91.84
2022-10-17T17:11:24.908Z,91.87
2022-10-17T17:13:51.651Z,92.53
2022-10-17T17:16:23.648Z,92.38
2022-10-17T17:18:55.589Z,93.12
2022-10-17T17:21:22.469Z,93.24
2022-10-17T17:23:49.465Z,93.70
2022-10-17T17:26:18.910Z,93.31
2022-10-17T17:28:46.253Z,93.42
2022-10-17T17:31:24.532Z,93.41
2022-10-17T17:33:52.256Z,93.70
2022-10-17T17:36:25.122Z,93.76
2022-10-17T17:38:54.367Z,94.14
2022-10-17T17:41:21.174Z,93.74
2022-10-17T17:43:48.501Z,94.19
2022-10-17T17:46:20.304Z,94.62
2022-10-17T17:48:48.497Z,94.42
2022-10-17T17:51:17.194Z,94.24
2022-10-17T17:53:44.202Z,94.43
2022-10-17T17:56:23.498Z,94.72
2022-10-17T17:59:00.669Z,95.04
2022-10-17T18:01:30.495Z,94.68
2022-10-17T18:04:01.629Z,95.21
2022-10-17T18:06:28.636Z,94.86
2022-10-17T18:08:58.082Z,94.58
2022-10-17T18:11:26.205Z,94.58
2022-10-17T18:13:57.548Z,94.35
2022-10-17T18:16:25.237Z,94.72
2022-10-17T18:18:51.682Z,94.83
2022-10-17T18:21:18.392Z,94.88
2022-10-17T18:23:46.600Z,94.99
2022-10-17T18:26:14.550Z,94.95
2022-10-17T18:31:18.821Z,94.42
2022-10-17T18:33:45.637Z,94.48
2022-10-17T18:36:14.833Z,94.38
2022-10-17T18:38:42.200Z,94.62
2022-10-17T18:41:11.326Z,94.58
2022-10-17T18:43:39.577Z,94.64
2022-10-17T18:46:15.213Z,94.76
2022-10-17T18:48:44.435Z,94.45
2022-10-17T18:51:11.891Z,94.85
2022-10-17T18:53:43.677Z,95.27
2022-10-17T18:56:10.739Z,95.28
2022-10-17T18:58:38.101Z,95.36
2022-10-17T19:01:11.192Z,95.38
2022-10-17T19:03:38.207Z,95.16
2022-10-17T19:06:07.535Z,95.05
2022-10-17T19:08:35.221Z,95.14
2022-10-17T19:11:10.110Z,95.30
2022-10-17T19:13:36.978Z,95.28
2022-10-17T19:16:08.090Z,95.49
2022-10-17T19:18:35.455Z,95.28
2022-10-17T19:21:03.923Z,95.17
2022-10-17T19:23:30.726Z,95.57
2022-10-17T19:26:08.737Z,95.32
2022-10-17T19:28:37.248Z,95.50
2022-10-17T19:31:05.804Z,95.25
2022-10-17T19:33:33.008Z,95.16
2022-10-17T19:36:02.405Z,95.16
2022-10-17T19:38:28.972Z,95.35
2022-10-17T19:40:55.453Z,95.24
2022-10-17T19:43:22.203Z,95.46
2022-10-17T19:46:00.978Z,95.42
2022-10-17T19:48:27.601Z,95.11
2022-10-17T19:50:54.156Z,95.42
2022-10-17T19:53:23.473Z,95.23
2022-10-17T19:55:50.337Z,95.03
2022-10-17T19:58:17.164Z,95.23
2022-10-17T20:00:53.001Z,95.27
2022-10-17T20:03:19.370Z,95.24
2022-10-17T20:05:46.382Z,95.38
2022-10-17T20:08:13.114Z,95.33
2022-10-17T20:10:39.901Z,95.01
2022-10-17T20:13:06.333Z,95.10
2022-10-17T20:15:32.884Z,95.22
2022-10-17T20:17:59.629Z,95.02
2022-10-17T20:20:26.963Z,95.29
2022-10-17T20:22:53.620Z,95.11
2022-10-17T20:25:20.223Z,95.02
2022-10-17T20:27:46.892Z,95.16
2022-10-17T20:30:13.624Z,95.02
2022-10-17T20:32:40.128Z,94.97
2022-10-17T20:35:07.945Z,94.59
2022-10-17T20:37:41.454Z,94.84
2022-10-17T20:40:33.990Z,94.55
2022-10-17T20:42:56.117Z,94.05
2022-10-17T20:45:37.345Z,93.98
2022-10-17T20:48:16.057Z,94.05
2022-10-17T20:50:43.668Z,94.14
2022-10-17T20:53:35.434Z,93.86
2022-10-17T20:56:03.287Z,93.78
2022-10-17T20:58:29.930Z,93.65
2022-10-17T21:00:56.379Z,94.13
2022-10-17T21:03:23.385Z,93.90
2022-10-17T21:05:49.814Z,93.81
2022-10-17T21:08:16.274Z,94.49
2022-10-17T21:10:42.674Z,94.16
2022-10-17T21:13:09.055Z,94.15
2022-10-17T21:15:35.395Z,94.38
2022-10-17T21:18:02.247Z,94.56
2022-10-17T21:20:28.590Z,94.63
2022-10-17T21:22:55.107Z,94.56
2022-10-17T21:25:21.510Z,94.59
2022-10-17T21:27:47.914Z,94.33
2022-10-17T21:30:14.321Z,94.51
2022-10-17T21:32:51.500Z,94.55
2022-10-17T21:35:18.482Z,94.70
2022-10-17T21:37:44.857Z,94.66
2022-10-17T21:40:12.014Z,95.03
2022-10-17T21:42:38.416Z,94.80
2022-10-17T21:45:10.698Z,95.50
2022-10-17T21:47:54.863Z,95.11
2022-10-17T21:50:27.652Z,94.90
2022-10-17T21:52:54.019Z,94.87
2022-10-17T21:55:20.400Z,94.68
2022-10-17T21:57:46.810Z,94.96
2022-10-17T22:00:13.637Z,94.85
2022-10-17T22:02:40.041Z,95.70
2022-10-17T22:05:06.774Z,95.52
2022-10-17T22:07:33.182Z,95.05
2022-10-17T22:09:59.822Z,95.19
2022-10-17T22:12:26.589Z,95.40
2022-10-17T22:14:52.987Z,95.40
2022-10-17T22:17:19.532Z,95.21
2022-10-17T22:19:47.301Z,95.36
2022-10-17T22:22:13.921Z,95.51
2022-10-17T22:24:40.378Z,95.95
2022-10-17T22:27:06.740Z,95.91
2022-10-17T22:29:33.177Z,95.84
2022-10-17T22:31:59.567Z,96.20
2022-10-17T22:34:26.124Z,96.22
2022-10-17T22:36:52.476Z,95.98
2022-10-17T22:39:18.955Z,95.87
2022-10-17T22:41:45.380Z,95.97
2022-10-17T22:44:11.782Z,95.94
2022-10-17T22:46:38.210Z,95.77
2022-10-17T22:49:04.638Z,95.38
2022-10-17T22:51:31.367Z,95.74
2022-10-17T22:53:57.747Z,95.97
2022-10-17T22:56:24.188Z,96.06
2022-10-17T22:58:50.993Z,95.99
2022-10-17T23:01:20.511Z,96.11
2022-10-17T23:03:47.118Z,95.82
2022-10-17T23:06:14.014Z,95.59
2022-10-17T23:08:41.186Z,95.99
2022-10-17T23:11:08.532Z,96.00
2022-10-17T23:13:36.489Z,96.46
2022-10-17T23:16:03.734Z,96.40
2022-10-17T23:20:57.590Z,96.19
2022-10-17T23:23:24.075Z,96.03
2022-10-17T23:25:51.438Z,96.28
2022-10-17T23:28:17.904Z,96.07
2022-10-17T23:30:44.545Z,95.85
2022-10-17T23:33:12.799Z,95.87
2022-10-17T23:35:39.738Z,95.81
2022-10-17T23:38:06.154Z,95.88
2022-10-17T23:40:32.665Z,95.79
2022-10-17T23:42:59.045Z,95.89
2022-10-17T23:45:25.573Z,95.80
2022-10-17T23:47:52.005Z,96.02
2022-10-17T23:50:18.650Z,95.83
2022-10-17T23:52:45.081Z,95.62
2022-10-17T23:55:11.488Z,96.03
2022-10-17T23:57:37.970Z,96.00
